Kirchberg-Wetter.de


Hier erfahren Sie, wie das Wetter wird...


WebCam am Fuchsberg more information WebCam am Fuchsberg


Thunder radar more information blitzortung!


Rain radar more information rain snow radar


Besuchen Sie unsere anderen Wetter Stationen:

Template documentation
and downloads

And another site



Es ist keine erhöhte Aufmerksamkeit aufgrund des Wetters notwendig.    Es gibt keine Warnungen.

METAR-Meldungen aus der Umgebung

   
EHVK - Volkel Rnlafb, Netherlands
Entfernung von der Station bis: SW 18 km
Aktualisierung: 21-09-2020 20:55
Klar  
Klar  
   Wind: Norden 5.6 km/h
Wind: Norden 5.6 km/h
Temperatur: 18°C
Taupunkt: 9°C
Luftfeuchte: 56%
Luftdruck: 1014 hPa
Bewölkt: Klar
Sichtbarkeit: More than 10 km
Bewölkung: Klar
EHVK 211855Z AUTO 36003KT 9999 NCD 18/09 Q1014 BLU
EDLV - Niederrhein, Germany
Entfernung von der Station bis: SO 25 km
Aktualisierung: 21-09-2020 20:50
Klar  
Klar  
   Wind: Norden 1.9 km/h
Wind: Norden 1.9 km/h
Temperatur: 20°C
Taupunkt: 9°C
Luftfeuchte: 49%
Luftdruck: 1014 hPa
Sichtbarkeit: More than 10 km
Bewölkung: Klar
EDLV 211850Z 36001KT CAVOK 20/09 Q1014
EHDL - Deelen Rnlafb, Netherlands
Entfernung von der Station bis: N 35 km
Aktualisierung: 21-09-2020 20:55
Klar  
Klar  
   Wind: NW 3.7 km/h
Wind: NW 3.7 km/h
Temperatur: 14°C
Taupunkt: 9°C
Luftfeuchte: 72%
Luftdruck: 1014 hPa
Bewölkt: Klar
Sichtbarkeit: More than 10 km
Bewölkung: Klar
EHDL 211855Z AUTO 31002KT 9999 NCD 14/09 Q1014 BLU
EHEH - Eindhoven Rnlafb, Netherlands
Entfernung von der Station bis: SW 48 km
Aktualisierung: 21-09-2020 20:55
Klar  
Klar  
   Wind: NW 1.9 km/h
Wind: NW 1.9 km/h
Temperatur: 15°C
Taupunkt: 9°C
Luftfeuchte: 68%
Luftdruck: 1014 hPa
Bewölkt: Klar
Sichtbarkeit: More than 10 km
Bewölkung: Klar
EHEH 211855Z AUTO 31001KT 9999 NCD 15/09 Q1014 BLU NOSIG
EHGR - Gilze-Rijen Rnla, Netherlands
Entfernung von der Station bis: WSW 70 km
Aktualisierung: 21-09-2020 20:55
Klar  
Klar  
   Wind: variiert 3.7 km/h
Wind: variiert 3.7 km/h
Temperatur: 17°C
Taupunkt: 10°C
Luftfeuchte: 64%
Luftdruck: 1014 hPa
Bewölkt: Klar
Sichtbarkeit: More than 10 km
Bewölkung: Klar
EHGR 211855Z AUTO VRB02KT 9999 NCD 17/10 Q1014 BLU NOSIG
EBBL - Kleine-Brogel(Ba, Belgium
Entfernung von der Station bis: SSW 71 km
Aktualisierung: 21-09-2020 20:55
Klar  
Klar  
   Wind: variiert 1.9 km/h
Wind: variiert 1.9 km/h
Temperatur: 16°C
Taupunkt: 10°C
Luftfeuchte: 68%
Luftdruck: 1014 hPa
Bewölkt: Klar
Sichtbarkeit: More than 10 km
Bewölkung: Klar
EBBL 211855Z VRB01KT 9999 SKC 16/10 Q1014 BLU BLU

Script entwickelt von  Saratoga-weather.org Angepasst für das Template von  Weerstation Leuven

Sie finden unser Wetter-Infos auch auf:

Weather Underground

WeatherlinkIP

Wetternetz-Sachsen

Von uns verwendete Ausrüstung:

Wetterstation
Davis Vantage Pro2 Plus

Wetterprogramm
Meteobridge

WetterComputer
TP-Link TL-MR3020

Davis Vantage Pro2 Plus

Meteobridge

TP-Link TL-MR3020